sensor_id;sensor_type;location;lat;lon;timestamp;P1;durP1;ratioP1;P2;durP2;ratioP2
73872;SDS011;62206;47.568;9.364;2023-04-12T00:19:02;3.50;;;2.03;;
73872;SDS011;62206;47.568;9.364;2023-04-12T00:21:32;3.67;;;1.70;;
73872;SDS011;62206;47.568;9.364;2023-04-12T00:24:01;2.65;;;1.38;;
73872;SDS011;62206;47.568;9.364;2023-04-12T00:26:44;4.10;;;1.50;;
73872;SDS011;62206;47.568;9.364;2023-04-12T00:29:17;2.60;;;1.20;;
73872;SDS011;62206;47.568;9.364;2023-04-12T00:31:45;1.27;;;0.93;;
73872;SDS011;62206;47.568;9.364;2023-04-12T00:34:14;2.63;;;0.88;;
73872;SDS011;62206;47.568;9.364;2023-04-12T00:36:46;1.70;;;0.93;;
73872;SDS011;62206;47.568;9.364;2023-04-12T00:39:18;0.98;;;0.95;;
73872;SDS011;62206;47.568;9.364;2023-04-12T00:41:54;0.93;;;0.82;;
73872;SDS011;62206;47.568;9.364;2023-04-12T00:44:28;1.70;;;1.30;;
73872;SDS011;62206;47.568;9.364;2023-04-12T00:47:24;2.70;;;0.90;;
73872;SDS011;62206;47.568;9.364;2023-04-12T00:50:25;0.82;;;0.82;;
73872;SDS011;62206;47.568;9.364;2023-04-12T00:53:08;2.83;;;1.33;;
73872;SDS011;62206;47.568;9.364;2023-04-12T00:56:01;0.90;;;0.90;;
73872;SDS011;62206;47.568;9.364;2023-04-12T00:58:55;0.90;;;0.90;;
73872;SDS011;62206;47.568;9.364;2023-04-12T01:01:43;2.05;;;1.15;;
73872;SDS011;62206;47.568;9.364;2023-04-12T01:05:11;1.38;;;1.23;;
73872;SDS011;62206;47.568;9.364;2023-04-12T01:08:20;4.25;;;1.40;;
73872;SDS011;62206;47.568;9.364;2023-04-12T01:11:14;3.65;;;2.13;;
73872;SDS011;62206;47.568;9.364;2023-04-12T01:14:20;2.63;;;1.58;;
73872;SDS011;62206;47.568;9.364;2023-04-12T01:17:10;4.85;;;2.10;;
73872;SDS011;62206;47.568;9.364;2023-04-12T01:19:46;4.93;;;1.83;;
73872;SDS011;62206;47.568;9.364;2023-04-12T01:22:37;3.60;;;1.55;;
73872;SDS011;62206;47.568;9.364;2023-04-12T01:25:31;1.85;;;1.70;;
73872;SDS011;62206;47.568;9.364;2023-04-12T01:28:08;2.45;;;1.13;;
73872;SDS011;62206;47.568;9.364;2023-04-12T01:30:36;1.45;;;1.35;;
73872;SDS011;62206;47.568;9.364;2023-04-12T01:33:05;10.02;;;2.22;;
73872;SDS011;62206;47.568;9.364;2023-04-12T01:35:35;3.58;;;1.80;;
73872;SDS011;62206;47.568;9.364;2023-04-12T01:38:04;4.50;;;1.20;;
73872;SDS011;62206;47.568;9.364;2023-04-12T01:40:34;1.60;;;1.50;;
73872;SDS011;62206;47.568;9.364;2023-04-12T01:43:07;1.88;;;1.40;;
73872;SDS011;62206;47.568;9.364;2023-04-12T01:45:48;8.30;;;2.65;;
73872;SDS011;62206;47.568;9.364;2023-04-12T01:48:16;1.35;;;0.98;;
73872;SDS011;62206;47.568;9.364;2023-04-12T01:50:53;2.13;;;1.75;;
73872;SDS011;62206;47.568;9.364;2023-04-12T01:53:31;1.30;;;1.20;;
73872;SDS011;62206;47.568;9.364;2023-04-12T01:56:05;4.00;;;2.22;;
73872;SDS011;62206;47.568;9.364;2023-04-12T01:58:38;1.60;;;1.50;;
73872;SDS011;62206;47.568;9.364;2023-04-12T02:01:06;2.13;;;1.88;;
73872;SDS011;62206;47.568;9.364;2023-04-12T02:03:33;2.53;;;2.33;;
73872;SDS011;62206;47.568;9.364;2023-04-12T02:06:02;3.22;;;2.00;;
73872;SDS011;62206;47.568;9.364;2023-04-12T02:08:32;6.93;;;2.78;;
73872;SDS011;62206;47.568;9.364;2023-04-12T02:10:59;5.40;;;2.58;;
73872;SDS011;62206;47.568;9.364;2023-04-12T02:13:28;3.65;;;1.70;;
73872;SDS011;62206;47.568;9.364;2023-04-12T02:18:41;3.00;;;2.15;;
73872;SDS011;62206;47.568;9.364;2023-04-12T02:21:11;5.38;;;2.10;;
73872;SDS011;62206;47.568;9.364;2023-04-12T02:23:43;1.98;;;1.65;;
73872;SDS011;62206;47.568;9.364;2023-04-12T02:26:16;3.40;;;1.10;;
73872;SDS011;62206;47.568;9.364;2023-04-12T02:28:47;4.10;;;2.45;;
73872;SDS011;62206;47.568;9.364;2023-04-12T02:31:21;1.52;;;1.30;;
73872;SDS011;62206;47.568;9.364;2023-04-12T02:33:50;2.70;;;1.60;;
73872;SDS011;62206;47.568;9.364;2023-04-12T02:36:18;2.25;;;1.85;;
73872;SDS011;62206;47.568;9.364;2023-04-12T02:38:49;2.42;;;1.42;;
73872;SDS011;62206;47.568;9.364;2023-04-12T02:41:17;3.40;;;1.30;;
73872;SDS011;62206;47.568;9.364;2023-04-12T02:43:54;5.03;;;1.65;;
73872;SDS011;62206;47.568;9.364;2023-04-12T02:46:28;2.22;;;1.42;;
73872;SDS011;62206;47.568;9.364;2023-04-12T02:48:55;3.22;;;1.60;;
73872;SDS011;62206;47.568;9.364;2023-04-12T02:51:25;3.42;;;1.20;;
73872;SDS011;62206;47.568;9.364;2023-04-12T02:54:09;8.30;;;2.30;;
73872;SDS011;62206;47.568;9.364;2023-04-12T02:56:49;2.92;;;2.33;;
73872;SDS011;62206;47.568;9.364;2023-04-12T02:59:18;2.00;;;1.20;;
73872;SDS011;62206;47.568;9.364;2023-04-12T03:01:57;1.55;;;1.45;;
73872;SDS011;62206;47.568;9.364;2023-04-12T03:04:28;1.98;;;1.70;;
73872;SDS011;62206;47.568;9.364;2023-04-12T03:07:01;1.38;;;1.08;;
73872;SDS011;62206;47.568;9.364;2023-04-12T03:09:32;2.65;;;1.15;;
73872;SDS011;62206;47.568;9.364;2023-04-12T03:12:03;2.28;;;1.33;;
73872;SDS011;62206;47.568;9.364;2023-04-12T03:14:31;0.70;;;0.70;;
73872;SDS011;62206;47.568;9.364;2023-04-12T03:17:09;2.47;;;1.15;;
73872;SDS011;62206;47.568;9.364;2023-04-12T03:19:41;2.42;;;1.30;;
73872;SDS011;62206;47.568;9.364;2023-04-12T03:22:15;1.38;;;0.90;;
73872;SDS011;62206;47.568;9.364;2023-04-12T03:24:52;1.13;;;1.02;;
73872;SDS011;62206;47.568;9.364;2023-04-12T03:27:20;2.72;;;0.85;;
73872;SDS011;62206;47.568;9.364;2023-04-12T03:29:50;1.40;;;0.70;;
73872;SDS011;62206;47.568;9.364;2023-04-12T03:32:28;2.28;;;0.82;;
73872;SDS011;62206;47.568;9.364;2023-04-12T03:34:56;1.23;;;0.88;;
73872;SDS011;62206;47.568;9.364;2023-04-12T03:37:29;4.18;;;1.00;;
73872;SDS011;62206;47.568;9.364;2023-04-12T03:40:14;1.25;;;1.13;;
73872;SDS011;62206;47.568;9.364;2023-04-12T03:43:04;1.27;;;1.17;;
73872;SDS011;62206;47.568;9.364;2023-04-12T03:45:33;2.60;;;0.90;;
73872;SDS011;62206;47.568;9.364;2023-04-12T03:48:11;2.15;;;1.08;;
73872;SDS011;62206;47.568;9.364;2023-04-12T03:50:39;1.17;;;1.08;;
73872;SDS011;62206;47.568;9.364;2023-04-12T03:53:20;0.80;;;0.80;;
73872;SDS011;62206;47.568;9.364;2023-04-12T03:55:49;1.17;;;1.00;;
73872;SDS011;62206;47.568;9.364;2023-04-12T03:58:20;1.60;;;1.50;;
73872;SDS011;62206;47.568;9.364;2023-04-12T04:00:54;1.10;;;1.10;;
73872;SDS011;62206;47.568;9.364;2023-04-12T04:03:29;1.65;;;1.40;;
73872;SDS011;62206;47.568;9.364;2023-04-12T04:06:06;2.43;;;2.23;;
73872;SDS011;62206;47.568;9.364;2023-04-12T04:08:35;2.50;;;2.08;;
73872;SDS011;62206;47.568;9.364;2023-04-12T04:11:03;1.70;;;1.60;;
73872;SDS011;62206;47.568;9.364;2023-04-12T04:13:32;2.00;;;1.90;;
73872;SDS011;62206;47.568;9.364;2023-04-12T04:16:02;2.38;;;2.08;;
73872;SDS011;62206;47.568;9.364;2023-04-12T04:18:37;2.72;;;2.33;;
73872;SDS011;62206;47.568;9.364;2023-04-12T04:21:07;3.75;;;1.20;;
73872;SDS011;62206;47.568;9.364;2023-04-12T04:23:35;2.15;;;1.65;;
73872;SDS011;62206;47.568;9.364;2023-04-12T04:28:36;2.17;;;2.00;;
73872;SDS011;62206;47.568;9.364;2023-04-12T04:31:09;3.78;;;2.08;;
73872;SDS011;62206;47.568;9.364;2023-04-12T04:33:51;4.20;;;2.08;;
73872;SDS011;62206;47.568;9.364;2023-04-12T04:36:19;2.08;;;1.98;;
73872;SDS011;62206;47.568;9.364;2023-04-12T04:38:48;2.03;;;1.85;;
73872;SDS011;62206;47.568;9.364;2023-04-12T04:41:17;2.20;;;2.00;;
73872;SDS011;62206;47.568;9.364;2023-04-12T04:43:47;3.75;;;1.98;;
73872;SDS011;62206;47.568;9.364;2023-04-12T04:46:19;1.90;;;1.55;;
73872;SDS011;62206;47.568;9.364;2023-04-12T04:48:55;3.13;;;2.67;;
73872;SDS011;62206;47.568;9.364;2023-04-12T04:51:23;3.88;;;2.03;;
73872;SDS011;62206;47.568;9.364;2023-04-12T04:53:51;2.90;;;2.05;;
73872;SDS011;62206;47.568;9.364;2023-04-12T04:56:21;4.38;;;2.72;;
73872;SDS011;62206;47.568;9.364;2023-04-12T04:58:49;3.58;;;3.28;;
73872;SDS011;62206;47.568;9.364;2023-04-12T05:01:18;3.30;;;2.13;;
73872;SDS011;62206;47.568;9.364;2023-04-12T05:03:45;2.35;;;2.17;;
73872;SDS011;62206;47.568;9.364;2023-04-12T05:06:16;1.95;;;1.85;;
73872;SDS011;62206;47.568;9.364;2023-04-12T05:08:45;2.38;;;2.17;;
73872;SDS011;62206;47.568;9.364;2023-04-12T05:11:18;2.97;;;2.15;;
73872;SDS011;62206;47.568;9.364;2023-04-12T05:13:50;2.55;;;2.25;;
73872;SDS011;62206;47.568;9.364;2023-04-12T05:16:22;2.00;;;1.90;;
73872;SDS011;62206;47.568;9.364;2023-04-12T05:18:52;3.53;;;2.78;;
73872;SDS011;62206;47.568;9.364;2023-04-12T05:21:23;2.63;;;2.30;;
73872;SDS011;62206;47.568;9.364;2023-04-12T05:23:52;3.35;;;2.42;;
73872;SDS011;62206;47.568;9.364;2023-04-12T05:26:20;3.38;;;3.05;;
73872;SDS011;62206;47.568;9.364;2023-04-12T05:28:48;3.15;;;2.60;;
73872;SDS011;62206;47.568;9.364;2023-04-12T05:31:16;2.78;;;2.42;;
73872;SDS011;62206;47.568;9.364;2023-04-12T05:33:44;2.30;;;2.20;;
73872;SDS011;62206;47.568;9.364;2023-04-12T05:36:13;6.15;;;3.78;;
73872;SDS011;62206;47.568;9.364;2023-04-12T05:38:44;5.70;;;3.80;;
73872;SDS011;62206;47.568;9.364;2023-04-12T06:12:15;3.42;;;3.05;;
73872;SDS011;62206;47.568;9.364;2023-04-12T06:14:44;3.33;;;2.65;;
73872;SDS011;62206;47.568;9.364;2023-04-12T06:17:11;6.05;;;3.00;;
73872;SDS011;62206;47.568;9.364;2023-04-12T06:19:39;5.15;;;3.15;;
73872;SDS011;62206;47.568;9.364;2023-04-12T06:22:07;4.43;;;3.45;;
73872;SDS011;62206;47.568;9.364;2023-04-12T06:24:35;3.15;;;2.90;;
73872;SDS011;62206;47.568;9.364;2023-04-12T06:27:03;2.72;;;2.53;;
73872;SDS011;62206;47.568;9.364;2023-04-12T06:29:33;2.88;;;2.67;;
73872;SDS011;62206;47.568;9.364;2023-04-12T06:34:27;4.38;;;2.10;;
73872;SDS011;62206;47.568;9.364;2023-04-12T06:36:58;2.65;;;2.45;;
73872;SDS011;62206;47.568;9.364;2023-04-12T06:39:26;2.55;;;2.35;;
73872;SDS011;62206;47.568;9.364;2023-04-12T06:42:15;2.58;;;2.33;;
73872;SDS011;62206;47.568;9.364;2023-04-12T06:45:02;2.03;;;1.90;;
73872;SDS011;62206;47.568;9.364;2023-04-12T06:47:31;1.98;;;1.88;;
73872;SDS011;62206;47.568;9.364;2023-04-12T06:50:12;4.07;;;1.63;;
73872;SDS011;62206;47.568;9.364;2023-04-12T06:52:45;5.45;;;4.22;;
73872;SDS011;62206;47.568;9.364;2023-04-12T06:55:15;4.20;;;1.85;;
73872;SDS011;62206;47.568;9.364;2023-04-12T06:57:47;1.73;;;1.63;;
73872;SDS011;62206;47.568;9.364;2023-04-12T07:00:18;1.98;;;1.50;;
73872;SDS011;62206;47.568;9.364;2023-04-12T07:03:02;3.10;;;2.20;;
73872;SDS011;62206;47.568;9.364;2023-04-12T07:05:36;1.77;;;1.67;;
73872;SDS011;62206;47.568;9.364;2023-04-12T07:13:01;4.65;;;2.38;;
73872;SDS011;62206;47.568;9.364;2023-04-12T07:23:54;2.80;;;1.85;;
73872;SDS011;62206;47.568;9.364;2023-04-12T07:26:30;3.58;;;1.63;;
73872;SDS011;62206;47.568;9.364;2023-04-12T07:29:02;2.35;;;2.15;;
73872;SDS011;62206;47.568;9.364;2023-04-12T07:31:45;1.92;;;1.55;;
73872;SDS011;62206;47.568;9.364;2023-04-12T07:34:20;3.15;;;2.33;;
73872;SDS011;62206;47.568;9.364;2023-04-12T07:42:08;1.60;;;1.45;;
73872;SDS011;62206;47.568;9.364;2023-04-12T07:44:41;1.63;;;1.52;;
73872;SDS011;62206;47.568;9.364;2023-04-12T07:47:09;4.03;;;2.03;;
73872;SDS011;62206;47.568;9.364;2023-04-12T07:49:39;1.77;;;1.67;;
73872;SDS011;62206;47.568;9.364;2023-04-12T07:54:36;1.88;;;1.70;;
73872;SDS011;62206;47.568;9.364;2023-04-12T07:57:03;1.80;;;1.42;;
73872;SDS011;62206;47.568;9.364;2023-04-12T07:59:37;5.43;;;2.15;;
73872;SDS011;62206;47.568;9.364;2023-04-12T08:02:05;4.15;;;1.63;;
73872;SDS011;62206;47.568;9.364;2023-04-12T08:04:39;3.58;;;1.50;;
73872;SDS011;62206;47.568;9.364;2023-04-12T08:07:09;1.63;;;1.52;;
73872;SDS011;62206;47.568;9.364;2023-04-12T08:09:52;2.08;;;1.75;;
73872;SDS011;62206;47.568;9.364;2023-04-12T08:12:22;1.20;;;0.95;;
73872;SDS011;62206;47.568;9.364;2023-04-12T08:18:55;1.45;;;1.35;;
73872;SDS011;62206;47.568;9.364;2023-04-12T08:21:22;4.22;;;1.23;;
73872;SDS011;62206;47.568;9.364;2023-04-12T08:23:52;1.75;;;1.33;;
73872;SDS011;62206;47.568;9.364;2023-04-12T08:26:19;4.22;;;1.70;;
73872;SDS011;62206;47.568;9.364;2023-04-12T08:28:47;2.47;;;1.92;;
73872;SDS011;62206;47.568;9.364;2023-04-12T08:31:15;3.42;;;1.38;;
73872;SDS011;62206;47.568;9.364;2023-04-12T08:33:43;0.98;;;0.88;;
73872;SDS011;62206;47.568;9.364;2023-04-12T08:36:12;1.58;;;1.48;;
73872;SDS011;62206;47.568;9.364;2023-04-12T08:38:41;0.77;;;0.77;;
73872;SDS011;62206;47.568;9.364;2023-04-12T08:41:08;3.22;;;1.20;;
73872;SDS011;62206;47.568;9.364;2023-04-12T08:43:36;3.55;;;2.28;;
73872;SDS011;62206;47.568;9.364;2023-04-12T08:46:04;4.55;;;2.13;;
73872;SDS011;62206;47.568;9.364;2023-04-12T08:48:32;1.63;;;1.52;;
73872;SDS011;62206;47.568;9.364;2023-04-12T08:51:00;6.38;;;1.80;;
73872;SDS011;62206;47.568;9.364;2023-04-12T08:53:30;1.45;;;1.30;;
73872;SDS011;62206;47.568;9.364;2023-04-12T08:58:28;2.22;;;1.83;;
73872;SDS011;62206;47.568;9.364;2023-04-12T09:00:57;1.48;;;1.40;;
73872;SDS011;62206;47.568;9.364;2023-04-12T09:03:24;3.03;;;2.08;;
73872;SDS011;62206;47.568;9.364;2023-04-12T09:06:01;2.05;;;1.85;;
73872;SDS011;62206;47.568;9.364;2023-04-12T09:08:31;2.83;;;1.95;;
73872;SDS011;62206;47.568;9.364;2023-04-12T09:13:39;1.60;;;1.50;;
73872;SDS011;62206;47.568;9.364;2023-04-12T09:16:33;1.67;;;1.27;;
73872;SDS011;62206;47.568;9.364;2023-04-12T09:19:13;2.20;;;1.67;;
73872;SDS011;62206;47.568;9.364;2023-04-12T09:21:53;1.90;;;1.70;;
73872;SDS011;62206;47.568;9.364;2023-04-12T09:24:26;2.38;;;1.70;;
73872;SDS011;62206;47.568;9.364;2023-04-12T09:27:01;1.92;;;1.38;;
73872;SDS011;62206;47.568;9.364;2023-04-12T09:29:32;1.77;;;1.33;;
73872;SDS011;62206;47.568;9.364;2023-04-12T09:37:35;2.28;;;0.82;;
73872;SDS011;62206;47.568;9.364;2023-04-12T09:40:15;0.95;;;0.95;;
73872;SDS011;62206;47.568;9.364;2023-04-12T09:42:51;1.52;;;1.27;;
73872;SDS011;62206;47.568;9.364;2023-04-12T09:45:24;1.75;;;0.70;;
73872;SDS011;62206;47.568;9.364;2023-04-12T09:47:53;2.25;;;0.82;;
73872;SDS011;62206;47.568;9.364;2023-04-12T09:50:25;1.23;;;1.13;;
73872;SDS011;62206;47.568;9.364;2023-04-12T09:52:58;2.10;;;1.58;;
73872;SDS011;62206;47.568;9.364;2023-04-12T09:55:29;1.50;;;1.33;;
73872;SDS011;62206;47.568;9.364;2023-04-12T09:58:00;5.28;;;2.35;;
73872;SDS011;62206;47.568;9.364;2023-04-12T10:00:30;1.48;;;1.20;;
73872;SDS011;62206;47.568;9.364;2023-04-12T10:03:11;2.70;;;1.40;;
73872;SDS011;62206;47.568;9.364;2023-04-12T10:05:40;5.60;;;1.30;;
73872;SDS011;62206;47.568;9.364;2023-04-12T10:08:12;2.90;;;1.38;;
73872;SDS011;62206;47.568;9.364;2023-04-12T10:10:44;1.27;;;0.80;;
73872;SDS011;62206;47.568;9.364;2023-04-12T10:13:13;2.05;;;1.02;;
73872;SDS011;62206;47.568;9.364;2023-04-12T10:15:44;3.25;;;1.20;;
73872;SDS011;62206;47.568;9.364;2023-04-12T10:18:28;2.58;;;0.88;;
73872;SDS011;62206;47.568;9.364;2023-04-12T10:20:56;4.67;;;1.10;;
73872;SDS011;62206;47.568;9.364;2023-04-12T10:23:24;1.13;;;0.95;;
73872;SDS011;62206;47.568;9.364;2023-04-12T10:26:02;1.17;;;0.98;;
73872;SDS011;62206;47.568;9.364;2023-04-12T10:28:32;1.95;;;1.08;;
73872;SDS011;62206;47.568;9.364;2023-04-12T10:31:02;4.78;;;1.10;;
73872;SDS011;62206;47.568;9.364;2023-04-12T10:33:55;2.17;;;0.95;;
73872;SDS011;62206;47.568;9.364;2023-04-12T10:36:56;2.05;;;1.50;;
73872;SDS011;62206;47.568;9.364;2023-04-12T11:08:25;1.30;;;1.20;;
73872;SDS011;62206;47.568;9.364;2023-04-12T11:50:48;3.75;;;2.20;;
73872;SDS011;62206;47.568;9.364;2023-04-12T11:53:44;2.88;;;2.53;;
73872;SDS011;62206;47.568;9.364;2023-04-12T11:56:31;2.92;;;2.72;;
73872;SDS011;62206;47.568;9.364;2023-04-12T11:59:12;3.58;;;2.58;;
73872;SDS011;62206;47.568;9.364;2023-04-12T12:02:25;3.65;;;1.95;;
73872;SDS011;62206;47.568;9.364;2023-04-12T12:05:54;3.47;;;2.10;;
73872;SDS011;62206;47.568;9.364;2023-04-12T12:08:26;4.10;;;2.03;;
73872;SDS011;62206;47.568;9.364;2023-04-12T12:10:56;3.03;;;2.50;;
73872;SDS011;62206;47.568;9.364;2023-04-12T12:13:44;3.67;;;2.13;;
73872;SDS011;62206;47.568;9.364;2023-04-12T12:16:24;2.30;;;2.10;;
73872;SDS011;62206;47.568;9.364;2023-04-12T12:19:08;2.67;;;1.90;;
73872;SDS011;62206;47.568;9.364;2023-04-12T12:21:46;5.13;;;2.33;;
73872;SDS011;62206;47.568;9.364;2023-04-12T12:24:18;2.72;;;1.73;;
73872;SDS011;62206;47.568;9.364;2023-04-12T12:26:49;3.53;;;2.08;;
73872;SDS011;62206;47.568;9.364;2023-04-12T12:29:21;3.20;;;1.70;;
73872;SDS011;62206;47.568;9.364;2023-04-12T12:32:10;1.95;;;1.73;;
73872;SDS011;62206;47.568;9.364;2023-04-12T12:34:39;2.47;;;1.35;;
73872;SDS011;62206;47.568;9.364;2023-04-12T12:37:13;4.25;;;2.20;;
73872;SDS011;62206;47.568;9.364;2023-04-12T12:42:43;3.30;;;1.80;;
73872;SDS011;62206;47.568;9.364;2023-04-12T12:45:12;2.20;;;1.60;;
73872;SDS011;62206;47.568;9.364;2023-04-12T12:47:48;1.67;;;1.52;;
73872;SDS011;62206;47.568;9.364;2023-04-12T12:50:21;3.40;;;1.38;;
73872;SDS011;62206;47.568;9.364;2023-04-12T12:53:08;2.72;;;2.17;;
73872;SDS011;62206;47.568;9.364;2023-04-12T12:55:42;1.75;;;1.60;;
73872;SDS011;62206;47.568;9.364;2023-04-12T12:58:14;2.53;;;1.67;;
73872;SDS011;62206;47.568;9.364;2023-04-12T13:00:42;4.55;;;2.08;;
73872;SDS011;62206;47.568;9.364;2023-04-12T13:03:11;2.90;;;2.50;;
73872;SDS011;62206;47.568;9.364;2023-04-12T13:05:42;4.18;;;1.77;;
73872;SDS011;62206;47.568;9.364;2023-04-12T13:08:13;2.83;;;1.73;;
73872;SDS011;62206;47.568;9.364;2023-04-12T13:10:59;6.32;;;2.10;;
73872;SDS011;62206;47.568;9.364;2023-04-12T13:13:32;7.78;;;3.85;;
73872;SDS011;62206;47.568;9.364;2023-04-12T13:16:06;7.00;;;1.50;;
73872;SDS011;62206;47.568;9.364;2023-04-12T13:18:36;2.00;;;1.30;;
73872;SDS011;62206;47.568;9.364;2023-04-12T13:21:04;3.70;;;1.30;;
73872;SDS011;62206;47.568;9.364;2023-04-12T13:23:37;1.60;;;1.00;;
73872;SDS011;62206;47.568;9.364;2023-04-12T13:26:24;2.45;;;1.17;;
73872;SDS011;62206;47.568;9.364;2023-04-12T13:29:07;4.50;;;1.52;;
73872;SDS011;62206;47.568;9.364;2023-04-12T13:31:42;2.22;;;1.25;;
73872;SDS011;62206;47.568;9.364;2023-04-12T13:34:39;2.70;;;1.55;;
73872;SDS011;62206;47.568;9.364;2023-04-12T13:37:18;1.08;;;0.95;;
73872;SDS011;62206;47.568;9.364;2023-04-12T13:39:51;2.17;;;1.00;;
73872;SDS011;62206;47.568;9.364;2023-04-12T13:42:43;2.53;;;1.02;;
73872;SDS011;62206;47.568;9.364;2023-04-12T13:45:26;3.08;;;1.65;;
73872;SDS011;62206;47.568;9.364;2023-04-12T13:48:05;3.17;;;1.13;;
73872;SDS011;62206;47.568;9.364;2023-04-12T13:50:47;1.52;;;1.42;;
73872;SDS011;62206;47.568;9.364;2023-04-12T16:14:32;1.00;;;0.57;;
73872;SDS011;62206;47.568;9.364;2023-04-12T16:17:02;0.55;;;0.55;;
73872;SDS011;62206;47.568;9.364;2023-04-12T16:19:29;0.75;;;0.57;;
73872;SDS011;62206;47.568;9.364;2023-04-12T16:21:59;3.30;;;0.70;;
73872;SDS011;62206;47.568;9.364;2023-04-12T16:24:28;0.43;;;0.43;;
73872;SDS011;62206;47.568;9.364;2023-04-12T16:26:56;2.97;;;1.58;;
73872;SDS011;62206;47.568;9.364;2023-04-12T16:29:23;1.48;;;0.93;;
73872;SDS011;62206;47.568;9.364;2023-04-12T16:31:53;2.75;;;0.75;;
73872;SDS011;62206;47.568;9.364;2023-04-12T16:34:21;2.10;;;0.80;;
73872;SDS011;62206;47.568;9.364;2023-04-12T16:36:48;1.83;;;0.60;;
73872;SDS011;62206;47.568;9.364;2023-04-12T16:39:24;2.47;;;1.58;;
73872;SDS011;62206;47.568;9.364;2023-04-12T18:40:25;1.38;;;1.27;;
73872;SDS011;62206;47.568;9.364;2023-04-12T18:53:15;1.63;;;0.80;;
73872;SDS011;62206;47.568;9.364;2023-04-12T20:39:48;1.85;;;0.60;;
73872;SDS011;62206;47.568;9.364;2023-04-12T20:57:22;0.50;;;0.50;;
73872;SDS011;62206;47.568;9.364;2023-04-12T21:00:07;1.63;;;0.52;;
73872;SDS011;62206;47.568;9.364;2023-04-12T21:02:53;0.45;;;0.45;;
73872;SDS011;62206;47.568;9.364;2023-04-12T21:05:27;2.20;;;0.63;;
73872;SDS011;62206;47.568;9.364;2023-04-12T21:08:01;0.32;;;0.32;;
73872;SDS011;62206;47.568;9.364;2023-04-12T21:10:34;0.38;;;0.38;;
73872;SDS011;62206;47.568;9.364;2023-04-12T21:13:08;0.60;;;0.40;;
73872;SDS011;62206;47.568;9.364;2023-04-12T21:15:39;1.48;;;0.50;;
73872;SDS011;62206;47.568;9.364;2023-04-12T21:18:11;0.75;;;0.75;;
73872;SDS011;62206;47.568;9.364;2023-04-12T21:20:40;0.20;;;0.20;;
73872;SDS011;62206;47.568;9.364;2023-04-12T21:23:27;2.83;;;0.63;;
73872;SDS011;62206;47.568;9.364;2023-04-12T21:25:59;0.52;;;0.50;;
73872;SDS011;62206;47.568;9.364;2023-04-12T21:28:28;4.07;;;2.70;;
73872;SDS011;62206;47.568;9.364;2023-04-12T21:30:56;0.30;;;0.30;;
73872;SDS011;62206;47.568;9.364;2023-04-12T21:33:26;1.10;;;0.50;;
73872;SDS011;62206;47.568;9.364;2023-04-12T21:38:26;0.75;;;0.75;;
73872;SDS011;62206;47.568;9.364;2023-04-12T21:40:54;0.55;;;0.50;;
73872;SDS011;62206;47.568;9.364;2023-04-12T21:43:25;0.47;;;0.47;;
73872;SDS011;62206;47.568;9.364;2023-04-12T21:46:07;0.43;;;0.43;;
73872;SDS011;62206;47.568;9.364;2023-04-12T21:51:12;1.33;;;0.70;;
73872;SDS011;62206;47.568;9.364;2023-04-12T21:53:41;1.08;;;0.70;;
73872;SDS011;62206;47.568;9.364;2023-04-12T21:56:09;1.40;;;0.55;;
73872;SDS011;62206;47.568;9.364;2023-04-12T21:58:37;1.95;;;0.52;;
73872;SDS011;62206;47.568;9.364;2023-04-12T22:01:08;1.55;;;0.70;;
73872;SDS011;62206;47.568;9.364;2023-04-12T22:03:42;0.40;;;0.40;;
73872;SDS011;62206;47.568;9.364;2023-04-12T22:06:10;0.43;;;0.43;;
73872;SDS011;62206;47.568;9.364;2023-04-12T22:08:38;15.60;;;0.75;;
73872;SDS011;62206;47.568;9.364;2023-04-12T22:11:09;0.52;;;0.30;;
73872;SDS011;62206;47.568;9.364;2023-04-12T22:13:37;0.30;;;0.30;;
73872;SDS011;62206;47.568;9.364;2023-04-12T22:16:08;0.35;;;0.30;;
73872;SDS011;62206;47.568;9.364;2023-04-12T22:18:38;0.43;;;0.40;;
73872;SDS011;62206;47.568;9.364;2023-04-12T22:21:06;0.40;;;0.30;;
73872;SDS011;62206;47.568;9.364;2023-04-12T22:23:36;0.30;;;0.30;;
73872;SDS011;62206;47.568;9.364;2023-04-12T22:26:06;0.98;;;0.30;;
73872;SDS011;62206;47.568;9.364;2023-04-12T22:28:34;2.50;;;0.43;;
73872;SDS011;62206;47.568;9.364;2023-04-12T22:31:02;0.32;;;0.32;;
73872;SDS011;62206;47.568;9.364;2023-04-12T22:33:32;0.30;;;0.30;;
73872;SDS011;62206;47.568;9.364;2023-04-12T22:36:01;0.55;;;0.47;;
73872;SDS011;62206;47.568;9.364;2023-04-12T22:38:32;0.30;;;0.30;;
73872;SDS011;62206;47.568;9.364;2023-04-12T22:43:33;1.00;;;0.70;;
73872;SDS011;62206;47.568;9.364;2023-04-12T22:46:06;2.65;;;0.70;;
73872;SDS011;62206;47.568;9.364;2023-04-12T22:48:44;1.80;;;0.47;;
73872;SDS011;62206;47.568;9.364;2023-04-12T22:51:12;0.50;;;0.50;;
73872;SDS011;62206;47.568;9.364;2023-04-12T22:56:08;0.30;;;0.30;;
73872;SDS011;62206;47.568;9.364;2023-04-12T22:58:38;0.95;;;0.50;;
73872;SDS011;62206;47.568;9.364;2023-04-12T23:01:08;1.30;;;0.40;;
73872;SDS011;62206;47.568;9.364;2023-04-12T23:03:36;0.30;;;0.30;;
73872;SDS011;62206;47.568;9.364;2023-04-12T23:06:07;0.30;;;0.30;;
73872;SDS011;62206;47.568;9.364;2023-04-12T23:08:38;1.52;;;1.10;;
73872;SDS011;62206;47.568;9.364;2023-04-12T23:11:08;0.30;;;0.30;;
73872;SDS011;62206;47.568;9.364;2023-04-12T23:13:35;0.95;;;0.40;;
73872;SDS011;62206;47.568;9.364;2023-04-12T23:16:03;0.23;;;0.23;;
73872;SDS011;62206;47.568;9.364;2023-04-12T23:18:34;2.65;;;0.40;;
73872;SDS011;62206;47.568;9.364;2023-04-12T23:21:02;0.30;;;0.30;;
73872;SDS011;62206;47.568;9.364;2023-04-12T23:23:32;0.63;;;0.60;;
73872;SDS011;62206;47.568;9.364;2023-04-12T23:26:02;0.30;;;0.30;;
73872;SDS011;62206;47.568;9.364;2023-04-12T23:28:30;1.10;;;0.30;;
73872;SDS011;62206;47.568;9.364;2023-04-12T23:30:58;2.63;;;0.60;;
73872;SDS011;62206;47.568;9.364;2023-04-12T23:33:27;0.90;;;0.90;;
73872;SDS011;62206;47.568;9.364;2023-04-12T23:35:55;0.40;;;0.40;;
73872;SDS011;62206;47.568;9.364;2023-04-12T23:38:23;1.50;;;1.00;;
73872;SDS011;62206;47.568;9.364;2023-04-12T23:40:58;0.60;;;0.40;;
73872;SDS011;62206;47.568;9.364;2023-04-12T23:43:31;2.80;;;0.68;;
73872;SDS011;62206;47.568;9.364;2023-04-12T23:48:27;0.50;;;0.50;;
73872;SDS011;62206;47.568;9.364;2023-04-12T23:50:55;0.90;;;0.90;;
73872;SDS011;62206;47.568;9.364;2023-04-12T23:53:24;1.88;;;0.75;;
73872;SDS011;62206;47.568;9.364;2023-04-12T23:55:52;0.50;;;0.50;;
73872;SDS011;62206;47.568;9.364;2023-04-12T23:58:21;1.58;;;0.57;;
